Time;durP1;ratioP1;P1;durP2;ratioP2;P2;SDS_P1;SDS_P2;PMS_P1;PMS_P2;Temp;Humidity;BMP_temperature;BMP_pressure;BME280_temperature;BME280_humidity;BME280_pressure;Samples;Min_cycle;Max_cycle;Signal;HPM_P1;HPM_P2
2022/04/06 00:00:44;;;;;;;5.22;2.05;;;9.10;99.90;;;;;;5034112;28;20041;-66
2022/04/06 00:03:09;;;;;;;7.00;3.05;;;9.10;99.90;;;;;;5034071;28;20022;-66
2022/04/06 00:05:35;;;;;;;10.18;4.38;;;9.10;99.90;;;;;;5034089;28;20029;-67
2022/04/06 00:08:01;;;;;;;17.67;11.82;;;9.10;99.90;;;;;;5033910;28;20034;-67
2022/04/06 00:10:28;;;;;;;13.00;7.53;;;9.20;99.90;;;;;;5033958;28;20503;-67
2022/04/06 00:12:54;;;;;;;5.60;2.67;;;9.20;99.90;;;;;;5034182;28;20022;-66
2022/04/06 00:15:20;;;;;;;6.88;2.20;;;9.20;99.90;;;;;;5033798;28;20044;-66
2022/04/06 00:17:46;;;;;;;6.22;2.42;;;9.20;99.90;;;;;;5016076;28;20026;-66
2022/04/06 00:20:12;;;;;;;6.10;2.47;;;9.20;99.90;;;;;;5033838;28;20034;-66
2022/04/06 00:22:39;;;;;;;8.00;3.70;;;9.20;99.90;;;;;;5033593;28;20080;-67
2022/04/06 00:25:05;;;;;;;5.43;2.70;;;9.20;99.90;;;;;;5034047;28;20043;-66
2022/04/06 00:27:31;;;;;;;6.97;3.00;;;9.20;99.90;;;;;;5033638;28;20487;-67
2022/04/06 00:29:57;;;;;;;4.72;2.40;;;9.20;99.90;;;;;;5033905;28;20068;-66
2022/04/06 00:32:23;;;;;;;6.22;2.40;;;9.10;99.90;;;;;;5033855;28;20096;-66
2022/04/06 00:37:33;;;;;;;4.20;2.28;;;9.10;99.90;;;;;;5033833;28;20060;-67
2022/04/06 00:39:58;;;;;;;3.88;2.28;;;9.10;99.90;;;;;;5033521;28;20029;-66
2022/04/06 00:42:24;;;;;;;5.72;2.97;;;9.10;99.90;;;;;;5033433;28;20083;-66
2022/04/06 00:44:50;;;;;;;7.07;4.07;;;9.10;99.90;;;;;;5033697;28;20029;-66
2022/04/06 00:47:16;;;;;;;7.28;3.55;;;9.20;99.90;;;;;;5033303;28;20034;-66
2022/04/06 00:49:42;;;;;;;13.90;4.70;;;9.20;99.90;;;;;;5033360;28;20097;-67
2022/04/06 00:52:08;;;;;;;9.50;5.63;;;9.20;99.90;;;;;;5033306;28;20156;-66
2022/04/06 00:54:35;;;;;;;7.07;4.00;;;9.20;99.90;;;;;;5033558;28;20040;-67
2022/04/06 00:57:01;;;;;;;7.13;3.55;;;9.20;99.90;;;;;;5033265;28;20036;-67
2022/04/06 00:59:30;;;;;;;8.35;4.15;;;9.20;99.90;;;;;;5033815;28;20013;-66
2022/04/06 01:01:57;;;;;;;8.70;3.28;;;9.30;99.90;;;;;;5033157;28;20152;-67
2022/04/06 01:04:23;;;;;;;8.10;2.90;;;9.30;99.90;;;;;;5033402;28;20021;-66
2022/04/06 01:06:49;;;;;;;6.78;2.97;;;9.20;99.90;;;;;;5033054;28;20041;-67
2022/04/06 01:09:20;;;;;;;6.88;3.38;;;9.10;99.90;;;;;;5033117;28;20014;-66
2022/04/06 01:11:47;;;;;;;6.90;3.55;;;9.20;99.90;;;;;;5033437;28;20033;-66
2022/04/06 01:14:13;;;;;;;6.45;2.80;;;9.10;99.90;;;;;;5033062;28;20018;-66
2022/04/06 01:16:40;;;;;;;8.05;3.30;;;9.10;99.90;;;;;;5033100;28;20492;-67
2022/04/06 01:19:06;;;;;;;8.95;3.33;;;9.10;99.90;;;;;;5033011;28;20018;-67
2022/04/06 01:21:31;;;;;;;8.25;3.03;;;9.10;99.90;;;;;;5033006;28;20095;-67
2022/04/06 01:23:57;;;;;;;6.28;2.85;;;9.00;99.90;;;;;;5032813;28;20099;-67
2022/04/06 01:26:24;;;;;;;5.70;2.83;;;9.00;99.90;;;;;;5033442;28;20034;-67
2022/04/06 01:28:50;;;;;;;5.90;2.47;;;9.00;99.90;;;;;;5032981;28;20079;-66
2022/04/06 01:31:16;;;;;;;8.10;3.10;;;9.00;99.90;;;;;;5033169;28;20052;-67
2022/04/06 01:33:43;;;;;;;6.55;3.13;;;8.90;99.90;;;;;;5032914;28;20025;-66
2022/04/06 01:36:09;;;;;;;7.80;3.17;;;8.90;99.90;;;;;;5032869;28;20496;-67
2022/04/06 01:38:35;;;;;;;5.30;2.40;;;8.90;99.90;;;;;;5032843;28;20022;-67
2022/04/06 01:41:01;;;;;;;6.28;2.35;;;9.00;99.90;;;;;;5033146;28;20025;-66
2022/04/06 01:43:27;;;;;;;5.18;2.03;;;9.00;99.90;;;;;;5032815;28;20377;-67
2022/04/06 01:45:53;;;;;;;6.22;2.67;;;9.10;99.90;;;;;;5033063;28;20183;-66
2022/04/06 01:48:19;;;;;;;4.15;2.50;;;9.10;99.90;;;;;;5032674;28;20030;-67
2022/04/06 01:53:30;;;;;;;9.13;2.55;;;9.20;99.90;;;;;;5033031;28;20029;-66
2022/04/06 01:55:57;;;;;;;3.65;2.20;;;9.20;99.90;;;;;;5032981;28;20026;-66
2022/04/06 01:58:23;;;;;;;5.22;2.00;;;9.20;99.90;;;;;;5032687;28;20018;-66
2022/04/06 02:00:50;;;;;;;5.30;2.38;;;9.20;99.90;;;;;;5032661;28;20443;-66
2022/04/06 02:03:16;;;;;;;3.80;2.03;;;9.20;99.90;;;;;;5032906;28;20468;-66
2022/04/06 02:05:41;;;;;;;5.00;2.50;;;9.20;99.90;;;;;;5014900;28;20033;-66
2022/04/06 02:08:08;;;;;;;5.55;2.63;;;9.20;99.90;;;;;;5032534;28;20021;-66
2022/04/06 02:10:34;;;;;;;6.22;2.33;;;9.20;99.90;;;;;;5032573;28;20036;-66
2022/04/06 02:13:00;;;;;;;7.22;2.45;;;9.20;99.90;;;;;;5032558;28;20017;-66
2022/04/06 02:15:27;;;;;;;4.07;1.88;;;9.20;99.90;;;;;;5034697;28;20032;-66
2022/04/06 02:17:54;;;;;;;3.80;2.00;;;9.30;99.90;;;;;;5036106;28;20022;-66
2022/04/06 02:20:20;;;;;;;5.47;2.20;;;9.20;99.90;;;;;;5036341;28;20428;-66
2022/04/06 02:22:46;;;;;;;4.63;2.33;;;9.20;99.90;;;;;;5035777;28;20037;-66
2022/04/06 02:25:12;;;;;;;7.90;2.30;;;9.10;99.90;;;;;;5036320;28;20025;-66
2022/04/06 02:27:49;;;;;;;6.80;2.28;;;9.10;99.90;;;;;;5035828;28;20464;-67
2022/04/06 02:30:16;;;;;;;3.13;1.95;;;9.00;99.90;;;;;;5035826;28;20024;-67
2022/04/06 02:32:42;;;;;;;6.93;2.72;;;8.90;99.90;;;;;;5036128;28;20021;-67
2022/04/06 02:35:08;;;;;;;3.80;1.92;;;8.80;99.90;;;;;;5036076;28;20025;-67
2022/04/06 02:37:34;;;;;;;4.28;2.10;;;8.70;99.90;;;;;;5017942;28;20403;-66
2022/04/06 02:39:59;;;;;;;8.02;2.50;;;8.60;99.90;;;;;;5035707;28;20108;-66
2022/04/06 02:42:25;;;;;;;5.68;2.20;;;8.40;99.90;;;;;;5035630;28;20104;-66
2022/04/06 02:44:51;;;;;;;6.05;2.55;;;8.30;99.90;;;;;;5036160;28;20030;-67
2022/04/06 02:47:16;;;;;;;6.80;2.42;;;8.30;99.90;;;;;;5035749;28;20117;-66
2022/04/06 02:49:42;;;;;;;4.88;2.33;;;8.20;99.90;;;;;;5036095;28;20026;-67
2022/04/06 02:52:08;;;;;;;5.32;2.53;;;8.10;99.90;;;;;;5035572;28;20390;-67
2022/04/06 02:54:33;;;;;;;5.68;2.42;;;7.90;99.90;;;;;;5035463;28;20483;-66
2022/04/06 02:56:59;;;;;;;5.03;2.55;;;7.80;99.90;;;;;;5035670;28;20025;-66
2022/04/06 02:59:25;;;;;;;5.47;2.35;;;7.80;99.90;;;;;;5035359;28;20101;-66
2022/04/06 03:01:51;;;;;;;7.72;2.83;;;7.70;99.90;;;;;;5035593;28;20024;-67
2022/04/06 03:04:16;;;;;;;4.10;2.15;;;7.60;99.90;;;;;;5035246;28;20033;-67
2022/04/06 03:06:42;;;;;;;7.03;2.92;;;7.50;99.90;;;;;;5035442;28;20041;-66
2022/04/06 03:09:08;;;;;;;5.50;2.40;;;7.40;99.90;;;;;;5035435;28;20033;-66
2022/04/06 03:11:34;;;;;;;6.72;2.40;;;7.40;99.90;;;;;;5035166;28;20494;-66
2022/04/06 03:14:00;;;;;;;4.18;2.45;;;7.50;99.90;;;;;;5034958;28;20099;-66
2022/04/06 03:16:26;;;;;;;5.03;2.85;;;7.30;99.90;;;;;;5035044;28;20483;-67
2022/04/06 03:18:52;;;;;;;6.05;2.83;;;7.30;99.90;;;;;;5035018;28;20052;-66
2022/04/06 03:21:18;;;;;;;7.35;2.47;;;7.30;99.90;;;;;;5034908;28;20428;-67
2022/04/06 03:23:44;;;;;;;7.60;3.20;;;7.20;99.90;;;;;;5034657;28;20084;-67
2022/04/06 03:26:11;;;;;;;8.18;3.20;;;7.10;99.90;;;;;;5033934;28;20024;-67
2022/04/06 03:28:38;;;;;;;8.18;2.63;;;7.10;99.90;;;;;;5034918;28;20462;-66
2022/04/06 03:31:05;;;;;;;4.13;2.60;;;7.10;99.90;;;;;;5034721;28;20101;-66
2022/04/06 03:33:31;;;;;;;5.80;3.00;;;7.10;99.90;;;;;;5035255;28;20049;-66
2022/04/06 03:35:56;;;;;;;6.72;2.60;;;7.00;99.90;;;;;;5034593;28;20502;-66
2022/04/06 03:38:22;;;;;;;4.65;2.55;;;6.90;99.90;;;;;;5034633;28;20026;-66
2022/04/06 03:40:48;;;;;;;4.80;2.70;;;6.90;99.90;;;;;;5034592;28;20104;-66
2022/04/06 03:43:14;;;;;;;5.13;2.55;;;7.00;99.90;;;;;;5034522;28;20039;-67
2022/04/06 03:45:40;;;;;;;6.13;2.40;;;7.10;99.90;;;;;;5035033;28;20028;-66
2022/04/06 03:48:06;;;;;;;4.07;2.65;;;7.30;99.90;;;;;;5034337;28;20415;-66
2022/04/06 03:50:32;;;;;;;4.18;2.35;;;7.40;99.90;;;;;;5034376;28;20021;-66
2022/04/06 03:52:58;;;;;;;6.60;3.10;;;7.50;99.90;;;;;;5016408;28;20022;-66
2022/04/06 03:55:24;;;;;;;8.45;2.53;;;7.60;99.90;;;;;;5034533;28;20037;-67
2022/04/06 03:57:50;;;;;;;5.13;2.92;;;7.70;99.90;;;;;;5034222;28;20430;-66
2022/04/06 04:00:16;;;;;;;16.92;7.72;;;7.70;99.90;;;;;;5034463;28;20104;-66
2022/04/06 04:02:42;;;;;;;7.72;3.95;;;7.90;99.90;;;;;;5034040;28;20040;-67
2022/04/06 04:05:08;;;;;;;5.50;2.45;;;7.90;99.90;;;;;;5034416;28;20112;-67
2022/04/06 04:07:37;;;;;;;7.30;3.05;;;8.00;99.90;;;;;;5034221;28;20506;-66
2022/04/06 04:10:08;;;;;;;7.25;2.65;;;7.90;99.90;;;;;;5034250;28;20109;-65
2022/04/06 04:12:34;;;;;;;5.82;2.40;;;8.00;99.90;;;;;;5034579;28;20013;-67
2022/04/06 04:15:00;;;;;;;6.80;2.85;;;8.10;99.90;;;;;;5034109;28;20029;-66
2022/04/06 04:17:25;;;;;;;6.85;2.63;;;8.10;99.90;;;;;;5033877;28;20032;-67
2022/04/06 04:19:51;;;;;;;5.30;2.90;;;8.20;99.90;;;;;;5034095;28;20033;-67
2022/04/06 04:22:16;;;;;;;4.40;2.42;;;8.30;99.90;;;;;;5033892;28;20075;-66
2022/04/06 04:24:42;;;;;;;6.40;2.47;;;8.20;99.90;;;;;;5033359;28;20424;-67
2022/04/06 04:27:08;;;;;;;5.50;2.30;;;8.30;99.90;;;;;;5033904;28;20029;-66
2022/04/06 04:29:34;;;;;;;8.05;3.00;;;8.40;99.90;;;;;;5033920;28;20052;-67
2022/04/06 04:32:00;;;;;;;6.88;2.53;;;8.40;99.90;;;;;;5033884;28;20025;-67
2022/04/06 04:34:25;;;;;;;5.20;2.58;;;8.50;99.90;;;;;;5033837;28;20026;-66
2022/04/06 04:36:51;;;;;;;8.98;3.00;;;8.50;99.90;;;;;;5033859;28;20033;-66
2022/04/06 04:39:18;;;;;;;8.23;3.10;;;8.50;99.90;;;;;;5033254;28;20037;-67
2022/04/06 04:41:45;;;;;;;4.82;2.47;;;8.60;99.90;;;;;;5034064;28;20032;-66
2022/04/06 04:44:11;;;;;;;12.73;3.25;;;8.50;99.90;;;;;;5033761;28;20033;-67
2022/04/06 04:46:36;;;;;;;8.43;3.00;;;8.60;99.90;;;;;;5033615;28;20036;-66
2022/04/06 04:49:02;;;;;;;8.07;2.80;;;8.60;99.90;;;;;;5033664;28;20463;-67
2022/04/06 04:51:28;;;;;;;6.28;2.85;;;8.60;99.90;;;;;;5033937;28;20018;-66
2022/04/06 04:53:57;;;;;;;9.50;3.65;;;8.60;99.90;;;;;;5033377;28;20033;-66
2022/04/06 04:56:28;;;;;;;5.35;2.70;;;8.70;99.90;;;;;;5033318;28;20549;-66
2022/04/06 04:58:54;;;;;;;7.43;3.10;;;8.70;99.90;;;;;;5033300;28;20026;-67
2022/04/06 05:01:20;;;;;;;6.35;2.53;;;8.70;99.90;;;;;;5015707;28;20525;-67
2022/04/06 05:03:47;;;;;;;5.78;3.35;;;8.70;99.90;;;;;;5033737;28;20107;-67
2022/04/06 05:06:13;;;;;;;6.15;2.90;;;8.70;99.90;;;;;;5033130;28;20010;-67
2022/04/06 05:08:38;;;;;;;6.78;3.10;;;8.80;99.90;;;;;;5033582;28;20448;-66
2022/04/06 05:11:04;;;;;;;7.70;2.35;;;8.80;99.90;;;;;;5033084;28;20026;-67
2022/04/06 05:13:30;;;;;;;6.63;3.28;;;8.80;99.90;;;;;;5033379;28;20075;-66
2022/04/06 05:15:56;;;;;;;6.28;4.00;;;8.90;99.90;;;;;;5033066;28;20022;-67
2022/04/06 05:18:22;;;;;;;5.43;2.53;;;8.90;99.90;;;;;;5033062;28;20530;-66
2022/04/06 05:20:48;;;;;;;4.10;1.80;;;8.90;99.90;;;;;;5033298;28;20030;-66
2022/04/06 05:23:13;;;;;;;5.13;2.40;;;9.00;99.90;;;;;;5032793;28;20053;-66
2022/04/06 05:25:39;;;;;;;6.93;2.28;;;9.00;99.90;;;;;;5032966;28;20052;-66
2022/04/06 05:28:05;;;;;;;4.80;1.95;;;9.00;99.90;;;;;;5032881;28;20026;-66
2022/04/06 05:30:32;;;;;;;4.47;2.00;;;9.00;99.90;;;;;;5033173;28;20479;-66
2022/04/06 05:32:58;;;;;;;4.93;1.95;;;9.10;99.90;;;;;;5032926;28;20372;-66
2022/04/06 05:35:26;;;;;;;4.28;1.90;;;9.10;99.90;;;;;;5033247;28;20414;-67
2022/04/06 05:37:54;;;;;;;3.53;1.60;;;9.20;99.90;;;;;;5033150;28;20109;-67
2022/04/06 05:40:19;;;;;;;3.90;1.55;;;9.20;99.90;;;;;;5032857;28;20484;-66
2022/04/06 05:42:45;;;;;;;4.10;2.45;;;9.20;99.90;;;;;;5032850;28;20124;-67
2022/04/06 05:45:11;;;;;;;15.75;3.55;;;9.20;99.90;;;;;;5032689;28;20100;-66
2022/04/06 05:47:37;;;;;;;8.65;2.60;;;9.30;99.90;;;;;;5033009;28;20115;-67
2022/04/06 05:50:05;;;;;;;9.02;2.95;;;9.30;99.90;;;;;;5034039;28;20079;-67
2022/04/06 05:52:31;;;;;;;5.07;2.60;;;9.40;99.90;;;;;;5037133;28;20080;-66
2022/04/06 05:54:56;;;;;;;7.03;2.38;;;9.40;99.90;;;;;;5037053;28;20099;-66
2022/04/06 05:57:22;;;;;;;3.70;2.53;;;9.50;99.90;;;;;;5036541;28;20052;-67
2022/04/06 05:59:48;;;;;;;8.18;2.00;;;9.50;99.90;;;;;;5036488;28;20022;-66
2022/04/06 06:02:14;;;;;;;2.58;1.35;;;9.60;99.90;;;;;;5036448;28;20108;-66
2022/04/06 06:04:40;;;;;;;3.78;1.60;;;9.60;99.90;;;;;;5036352;28;20025;-66
2022/04/06 06:07:06;;;;;;;4.07;1.73;;;9.70;99.90;;;;;;5036218;28;20104;-67
2022/04/06 06:09:33;;;;;;;10.20;2.03;;;9.70;99.90;;;;;;5036339;28;20072;-66
2022/04/06 06:11:59;;;;;;;4.00;1.70;;;9.90;99.90;;;;;;5036286;28;20072;-66
2022/04/06 06:14:26;;;;;;;24.80;17.80;;;9.90;99.90;;;;;;5036158;28;20017;-66
2022/04/06 06:16:52;;;;;;;7.88;4.75;;;10.00;99.90;;;;;;5036423;28;20034;-67
2022/04/06 06:19:17;;;;;;;4.18;1.70;;;10.10;99.90;;;;;;5036108;28;20057;-66
2022/04/06 06:21:43;;;;;;;3.53;1.80;;;10.10;99.90;;;;;;5036658;28;20053;-66
2022/04/06 06:24:09;;;;;;;4.28;2.00;;;10.20;99.90;;;;;;5035795;28;20045;-67
2022/04/06 06:26:36;;;;;;;8.15;2.42;;;10.30;99.90;;;;;;5035916;28;20084;-67
2022/04/06 06:29:02;;;;;;;4.60;2.08;;;10.30;99.90;;;;;;5035917;28;20364;-65
2022/04/06 06:31:29;;;;;;;4.03;2.10;;;10.40;99.90;;;;;;5035923;28;20026;-66
2022/04/06 06:33:56;;;;;;;3.33;2.00;;;10.40;99.90;;;;;;5035855;28;20030;-65
2022/04/06 06:36:23;;;;;;;2.92;2.03;;;10.50;99.90;;;;;;5035804;28;20476;-66
2022/04/06 06:38:49;;;;;;;5.25;2.50;;;10.80;99.90;;;;;;5036573;28;20376;-67
2022/04/06 06:41:15;;;;;;;3.78;3.05;;;10.90;99.90;;;;;;5035955;28;20029;-66
2022/04/06 06:43:40;;;;;;;7.82;2.45;;;11.20;99.90;;;;;;5035730;28;20017;-66
2022/04/06 06:46:06;;;;;;;4.72;2.20;;;11.30;99.90;;;;;;5017883;28;20494;-66
2022/04/06 06:48:31;;;;;;;5.60;2.55;;;11.20;99.90;;;;;;5035776;28;20025;-67
2022/04/06 06:50:57;;;;;;;4.65;2.40;;;11.10;99.90;;;;;;5036052;28;20022;-66
2022/04/06 06:53:23;;;;;;;3.90;2.28;;;11.30;99.90;;;;;;5036021;28;20035;-67
2022/04/06 06:55:48;;;;;;;6.32;2.40;;;11.50;99.90;;;;;;5035449;28;20029;-66
2022/04/06 06:58:14;;;;;;;6.88;2.95;;;11.50;99.90;;;;;;5035369;28;20447;-67
2022/04/06 07:00:40;;;;;;;5.65;2.42;;;11.60;99.90;;;;;;5035185;28;20030;-69
2022/04/06 07:03:05;;;;;;;4.93;2.97;;;11.60;99.90;;;;;;5017563;28;20025;-68
2022/04/06 07:05:31;;;;;;;6.13;2.83;;;11.50;99.90;;;;;;5035090;28;20029;-69
2022/04/06 07:07:58;;;;;;;7.25;3.70;;;11.40;99.90;;;;;;5035080;28;20029;-68
2022/04/06 07:10:25;;;;;;;5.10;2.90;;;11.50;99.90;;;;;;5035123;28;20499;-68
2022/04/06 07:12:52;;;;;;;4.20;2.63;;;11.60;99.90;;;;;;5035138;28;20068;-68
2022/04/06 07:15:18;;;;;;;3.40;1.75;;;11.80;99.90;;;;;;5035137;28;20096;-68
2022/04/06 07:17:43;;;;;;;4.38;1.88;;;14.80;99.90;;;;;;5035059;28;20025;-69
2022/04/06 07:20:10;;;;;;;5.72;2.20;;;15.50;99.90;;;;;;5035057;28;20028;-69
2022/04/06 07:22:36;;;;;;;2.65;2.25;;;17.30;99.90;;;;;;5034755;28;20056;-68
2022/04/06 07:25:03;;;;;;;5.50;2.03;;;16.30;99.90;;;;;;5035221;28;20083;-68
2022/04/06 07:27:36;;;;;;;4.00;1.92;;;15.70;99.90;;;;;;5016956;28;20435;-68
2022/04/06 07:30:03;;;;;;;2.97;2.00;;;15.70;99.90;;;;;;5035087;28;20025;-68
2022/04/06 07:32:29;;;;;;;5.60;2.20;;;16.80;99.90;;;;;;5034736;28;20072;-68
2022/04/06 07:34:55;;;;;;;3.75;1.65;;;17.10;99.90;;;;;;5016934;28;20033;-69
2022/04/06 07:37:21;;;;;;;6.30;2.17;;;16.70;99.90;;;;;;5034618;28;20025;-68
2022/04/06 07:39:47;;;;;;;3.75;1.90;;;16.00;99.90;;;;;;5034834;28;20032;-68
2022/04/06 07:42:12;;;;;;;3.20;1.88;;;15.00;99.90;;;;;;5034797;28;20478;-68
2022/04/06 07:44:38;;;;;;;4.63;1.75;;;14.60;99.90;;;;;;5034743;28;20030;-71
2022/04/06 07:47:03;;;;;;;3.80;1.80;;;14.60;99.90;;;;;;5016640;28;20040;-73
2022/04/06 07:49:29;;;;;;;3.03;1.92;;;14.90;99.90;;;;;;5034390;28;20079;-73
2022/04/06 07:51:55;;;;;;;5.90;1.80;;;16.00;99.90;;;;;;5034219;28;20021;-72
2022/04/06 07:54:20;;;;;;;3.03;1.58;;;15.80;99.90;;;;;;5033422;28;20032;-72
2022/04/06 07:56:47;;;;;;;3.80;1.80;;;15.60;99.90;;;;;;5033145;28;20018;-73
2022/04/06 07:59:12;;;;;;;7.30;1.85;;;15.40;99.90;;;;;;5034217;28;20079;-71
2022/04/06 08:01:38;;;;;;;4.35;1.42;;;15.10;99.90;;;;;;5016449;28;20487;-72
2022/04/06 08:04:04;;;;;;;4.38;1.70;;;14.70;99.90;;;;;;5034132;28;20111;-72
2022/04/06 08:06:29;;;;;;;3.90;1.80;;;14.30;99.90;;;;;;5034050;28;20444;-72
2022/04/06 08:08:55;;;;;;;2.17;1.52;;;13.70;99.90;;;;;;5034263;28;20488;-72
2022/04/06 08:11:21;;;;;;;3.45;2.13;;;13.30;99.90;;;;;;5033855;28;20032;-72
2022/04/06 08:13:47;;;;;;;3.80;2.20;;;13.00;99.90;;;;;;5015665;28;20067;-72
2022/04/06 08:16:13;;;;;;;4.03;2.13;;;12.80;99.90;;;;;;5033797;28;20018;-71
2022/04/06 08:18:39;;;;;;;6.28;2.30;;;12.80;99.90;;;;;;5034418;28;20036;-73
2022/04/06 08:21:09;;;;;;;5.43;1.98;;;12.90;99.90;;;;;;5033867;28;20030;-72
2022/04/06 08:23:35;;;;;;;6.68;2.50;;;12.80;99.90;;;;;;5033415;28;20576;-72
2022/04/06 08:26:00;;;;;;;3.67;2.17;;;12.90;99.90;;;;;;5033728;28;20108;-73
2022/04/06 08:28:26;;;;;;;6.20;2.92;;;12.80;99.90;;;;;;5033643;28;20579;-71
2022/04/06 08:30:52;;;;;;;5.05;2.60;;;12.60;99.90;;;;;;5015950;28;20029;-73
2022/04/06 08:33:17;;;;;;;5.25;2.67;;;12.50;99.90;;;;;;5033842;28;20045;-72
2022/04/06 08:35:43;;;;;;;5.32;2.17;;;12.50;99.90;;;;;;5033881;28;20060;-72
2022/04/06 08:38:14;;;;;;;4.38;2.05;;;12.60;99.90;;;;;;5033594;28;20071;-72
2022/04/06 08:40:44;;;;;;;3.53;1.63;;;12.70;99.90;;;;;;5033781;28;20515;-71
2022/04/06 08:43:11;;;;;;;2.42;1.60;;;13.20;99.90;;;;;;5033550;28;20033;-72
2022/04/06 08:45:38;;;;;;;3.38;1.50;;;14.00;99.90;;;;;;5033490;28;20159;-73
2022/04/06 08:48:08;;;;;;;3.40;1.73;;;14.90;99.90;;;;;;5033374;28;20076;-70
2022/04/06 08:50:36;;;;;;;1.13;1.02;;;16.80;99.90;;;;;;5033689;28;20096;-71
2022/04/06 08:53:03;;;;;;;3.60;1.15;;;18.20;99.90;;;;;;5033346;28;20025;-70
2022/04/06 08:55:30;;;;;;;1.58;1.13;;;22.30;99.90;;;;;;5033525;28;20514;-71
2022/04/06 08:57:57;;;;;;;1.27;0.70;;;26.40;97.10;;;;;;5033290;28;20503;-71
2022/04/06 09:00:23;;;;;;;2.05;0.60;;;28.30;89.60;;;;;;5033227;28;20042;-72
2022/04/06 09:02:49;;;;;;;0.98;0.82;;;29.70;79.50;;;;;;5033790;28;20025;-72
2022/04/06 09:05:15;;;;;;;1.95;1.00;;;30.60;74.10;;;;;;5033258;28;20025;-71
2022/04/06 09:07:41;;;;;;;2.97;2.13;;;31.10;70.20;;;;;;5032866;28;20395;-71
2022/04/06 09:10:07;;;;;;;;;;;31.60;64.90;;;;;;5032418;28;20075;-71
2022/04/06 09:12:33;;;;;;;;;;;31.10;62.00;;;;;;5033391;28;19905;-71
2022/04/06 09:15:05;;;;;;;1.80;0.38;;;31.00;62.00;;;;;;5033359;28;19912;-66
2022/04/06 09:17:30;;;;;;;;;;;31.90;60.70;;;;;;5015803;28;20491;-71
2022/04/06 09:19:57;;;;;;;;;;;31.90;57.20;;;;;;5033484;28;19905;-65
2022/04/06 09:22:23;;;;;;;;;;;30.00;58.90;;;;;;5033995;28;19905;-68
2022/04/06 09:24:55;;;;;;;;;;;30.30;58.00;;;;;;5034238;28;19917;-70
2022/04/06 09:27:20;;;;;;;;;;;30.60;57.10;;;;;;5037477;28;19955;-71
2022/04/06 09:29:49;;;;;;;;;;;28.60;59.00;;;;;;5037488;28;20367;-71
2022/04/06 09:32:14;;;;;;;;;;;30.00;58.80;;;;;;5037967;28;20039;-68
2022/04/06 09:34:42;;;;;;;;;;;31.60;56.90;;;;;;5037645;28;19974;-67
2022/04/06 09:37:30;;;;;;;0.65;0.63;;;32.30;54.80;;;;;;5036938;28;19905;-72
2022/04/06 09:40:06;;;;;;;1.35;0.20;;;33.00;53.00;;;;;;5037469;28;20017;-73
2022/04/06 09:42:31;;;;;;;1.48;0.60;;;31.30;52.30;;;;;;5036870;28;20447;-72
2022/04/06 09:47:53;;;;;;;1.85;0.30;;;32.20;52.50;;;;;;5037158;28;20036;-72
2022/04/06 09:50:20;;;;;;;1.83;0.30;;;32.70;50.80;;;;;;5036663;28;20021;-69
2022/04/06 09:52:47;;;;;;;1.95;0.43;;;32.10;50.20;;;;;;5036588;28;20029;-72
2022/04/06 09:55:15;;;;;;;1.25;0.30;;;30.00;51.80;;;;;;5036570;28;20383;-71
2022/04/06 09:57:51;;;;;;;0.65;0.40;;;26.50;55.10;;;;;;5036551;28;20025;-71
2022/04/06 10:00:23;;;;;;;2.17;0.50;;;24.70;57.70;;;;;;5037141;28;20124;-71
2022/04/06 10:03:01;;;;;;;2.05;0.60;;;25.40;58.20;;;;;;5036781;28;20033;-71
2022/04/06 10:05:29;;;;;;;2.40;0.80;;;26.20;57.90;;;;;;5036725;28;20029;-72
2022/04/06 10:07:55;;;;;;;2.05;0.50;;;25.80;57.30;;;;;;5036224;28;20037;-71
2022/04/06 10:10:24;;;;;;;0.85;0.50;;;26.80;57.00;;;;;;5036854;28;20383;-73
2022/04/06 10:12:51;;;;;;;0.80;0.50;;;27.70;56.70;;;;;;5036326;28;20041;-70
2022/04/06 10:15:18;;;;;;;0.90;0.57;;;26.60;56.10;;;;;;5036453;28;20028;-70
2022/04/06 10:17:43;;;;;;;2.33;0.50;;;24.90;58.00;;;;;;5036734;28;20064;-71
2022/04/06 10:20:27;;;;;;;1.35;0.50;;;24.80;59.00;;;;;;5036445;28;20021;-72
2022/04/06 10:23:24;;;;;;;0.95;0.50;;;24.40;61.10;;;;;;5036388;28;20503;-72
2022/04/06 10:26:03;;;;;;;;;;;24.00;61.60;;;;;;5002744;28;20048;-70
2022/04/06 10:28:33;;;;;;;;;;;23.60;61.90;;;;;;5036513;28;20004;-72
2022/04/06 10:31:11;;;;;;;;;;;22.80;63.40;;;;;;5036368;28;19909;-71
2022/04/06 10:33:37;;;;;;;2.10;0.90;;;21.60;65.90;;;;;;5035897;28;19920;-71
2022/04/06 10:36:17;;;;;;;;;;;20.90;68.70;;;;;;5036016;28;20017;-71
2022/04/06 10:39:10;;;;;;;;;;;20.80;70.20;;;;;;5036219;28;19905;-72
2022/04/06 10:41:41;;;;;;;;;;;21.10;69.00;;;;;;5036784;28;19951;-71
2022/04/06 10:44:26;;;;;;;;;;;21.20;69.00;;;;;;5036198;28;19984;-72
2022/04/06 10:46:51;;;;;;;;;;;21.40;68.30;;;;;;5036588;28;19912;-71
2022/04/06 10:49:17;;;;;;;;;;;20.50;70.80;;;;;;5036043;28;19905;-71
2022/04/06 10:51:43;;;;;;;;;;;20.30;71.70;;;;;;5036565;28;19905;-72
2022/04/06 10:54:11;;;;;;;;;;;20.60;71.00;;;;;;5036243;28;20287;-72
2022/04/06 10:56:46;;;;;;;;;;;21.40;70.00;;;;;;5036420;28;19954;-72
2022/04/06 10:59:14;;;;;;;;;;;21.40;69.30;;;;;;5036107;28;19905;-72
2022/04/06 11:01:45;;;;;;;;;;;20.70;70.40;;;;;;5036343;28;20363;-72
2022/04/06 11:04:23;;;;;;;;;;;19.90;73.40;;;;;;5034266;28;19905;-72
2022/04/06 11:06:56;;;;;;;;;;;19.50;74.10;;;;;;5035633;28;19955;-72
2022/04/06 11:12:16;;;;;;;;;;;18.50;77.50;;;;;;5035364;28;19999;-72
2022/04/06 11:15:01;;;;;;;;;;;18.40;78.10;;;;;;5035519;28;20354;-72
2022/04/06 11:17:45;;;;;;;;;;;18.20;79.40;;;;;;5034024;28;20278;-72
2022/04/06 11:20:21;;;;;;;;;;;18.00;81.30;;;;;;5036100;28;19947;-72
2022/04/06 11:22:46;;;;;;;;;;;18.00;82.00;;;;;;5017472;28;19972;-72
2022/04/06 11:25:15;;;;;;;;;;;18.00;82.40;;;;;;5035683;28;19900;-72
2022/04/06 11:27:42;;;;;;;;;;;18.10;83.10;;;;;;5035256;28;19916;-72
2022/04/06 11:30:09;;;;;;;;;;;18.00;83.10;;;;;;5035266;28;19905;-72
2022/04/06 11:32:36;;;;;;;;;;;17.50;84.50;;;;;;5035499;28;19912;-72
2022/04/06 11:35:03;;;;;;;;;;;17.00;87.40;;;;;;5035212;28;19959;-71
2022/04/06 11:37:29;;;;;;;;;;;16.80;88.10;;;;;;5035145;28;20384;-72
2022/04/06 11:39:56;;;;;;;;;;;16.60;89.50;;;;;;5035072;28;19944;-72
2022/04/06 11:42:22;;;;;;;;;;;16.40;90.80;;;;;;5035022;28;19929;-71
2022/04/06 11:44:47;;;;;;;;;;;16.00;91.90;;;;;;5035575;28;20396;-72
2022/04/06 11:47:13;;;;;;;;;;;16.00;92.90;;;;;;5033997;28;20355;-72
2022/04/06 11:49:38;;;;;;;;;;;15.70;93.80;;;;;;5035035;28;19991;-72
2022/04/06 11:52:05;;;;;;;;;;;15.60;95.20;;;;;;5034924;28;19908;-72
2022/04/06 11:54:31;;;;;;;;;;;15.50;96.60;;;;;;5035412;28;19909;-72
2022/04/06 11:56:57;;;;;;;;;;;15.40;97.90;;;;;;5034756;28;19912;-71
2022/04/06 11:59:23;;;;;;;;;;;15.50;98.70;;;;;;5035215;28;20244;-72
2022/04/06 12:01:50;;;;;;;;;;;15.70;99.30;;;;;;5034725;28;20469;-72
2022/04/06 12:04:21;;;;;;;;;;;15.60;99.90;;;;;;5034381;28;19905;-72
2022/04/06 12:06:46;;;;;;;;;;;15.40;99.90;;;;;;5034492;28;20366;-72
2022/04/06 12:09:12;;;;;;;;;;;15.50;99.90;;;;;;5035096;28;19905;-71
2022/04/06 12:11:39;;;;;;;;;;;15.80;99.90;;;;;;5034785;28;19905;-73
2022/04/06 12:14:06;;;;;;;;;;;16.50;99.90;;;;;;5034374;28;20003;-72
2022/04/06 12:16:33;;;;;;;;;;;17.00;99.90;;;;;;5034407;28;19936;-72
2022/04/06 12:18:58;;;;;;;;;;;17.60;99.20;;;;;;5034914;28;19909;-72
2022/04/06 12:21:25;;;;;;;;;;;18.50;97.80;;;;;;5034282;28;19916;-72
2022/04/06 12:23:52;;;;;;;;;;;19.00;97.00;;;;;;5034072;28;19940;-72
2022/04/06 12:26:17;;;;;;;;;;;19.40;96.10;;;;;;5034152;28;19909;-72
2022/04/06 12:28:46;;;;;;;;;;;19.50;95.40;;;;;;5034109;28;19963;-72
2022/04/06 12:31:12;;;;;;;;;;;19.10;95.70;;;;;;5016386;28;20267;-71
2022/04/06 12:33:50;;;;;;;;;;;18.50;96.10;;;;;;5034062;28;19987;-72
2022/04/06 12:36:42;;;;;;;;;;;18.20;96.80;;;;;;5034606;28;19913;-73
2022/04/06 12:39:10;;;;;;;;;;;18.00;97.40;;;;;;5029307;28;19912;-72
2022/04/06 12:41:57;;;;;;;;;;;17.70;97.50;;;;;;5034540;28;19909;-72
2022/04/06 12:44:23;;;;;;;;;;;17.70;97.80;;;;;;5016215;28;19912;-72
2022/04/06 12:46:49;;;;;;;;;;;17.60;98.10;;;;;;5033816;28;19905;-72
2022/04/06 12:49:17;;;;;;;;;;;17.80;98.20;;;;;;5034105;28;19909;-72
2022/04/06 12:51:43;;;;;;;;;;;18.30;98.00;;;;;;5033818;28;20326;-72
2022/04/06 12:54:08;;;;;;;;;;;18.80;97.20;;;;;;5033778;28;19905;-72
2022/04/06 12:56:34;;;;;;;;;;;18.60;97.60;;;;;;5032469;28;19909;-73
2022/04/06 12:59:09;;;;;;;;;;;18.80;98.60;;;;;;5034031;28;19911;-73
2022/04/06 13:01:47;;;;;;;;;;;19.20;98.50;;;;;;5033971;28;19951;-72
2022/04/06 13:04:13;;;;;;;;;;;19.60;99.10;;;;;;5033673;28;19905;-72
2022/04/06 13:06:39;;;;;;;;;;;20.40;98.40;;;;;;5033928;28;19905;-72
2022/04/06 13:09:11;;;;;;;;;;;20.70;96.50;;;;;;5033830;28;19913;-72
2022/04/06 13:11:36;;;;;;;;;;;21.40;96.30;;;;;;5034176;28;19944;-72
2022/04/06 13:14:02;;;;;;;;;;;21.30;95.20;;;;;;5032202;28;19912;-72
2022/04/06 13:16:28;;;;;;;;;;;21.20;95.10;;;;;;5033548;28;20414;-73
2022/04/06 13:18:54;;;;;;;;;;;20.70;95.60;;;;;;5033522;28;19991;-72
2022/04/06 13:21:23;;;;;;;;;;;20.50;95.50;;;;;;5033734;28;19991;-72
2022/04/06 13:23:49;;;;;;;;;;;20.70;95.10;;;;;;5033248;28;19917;-72